Tiempo atmosférico en la estación meteorológica de Valdemorillo, Madrid (884 m.)



Fecha
DESCASC
Temp. máxima en grados centígrados (hora)
DESCASC
Temp. mínima en grados centígrados (hora)
DESCASC
Temp. media en grados centígrados
DESCASC
Racha de viento máxima en m/sg (hora)
DESCASC
Velocidad máxima media en intervalos de 10 minutos(hora)
DESCASC
Precipitaciones diarias en mm
DESCASC
Precipitaciones de 00:00 a 06:00 en mm
DESCASC
Precipitaciones de 06:00 a 12:00 en mm
DESCASC
Precipitaciones de 12:00 a 18:00 en mm
DESCASC
Precipitaciones de 18:00 a 24:00 en mm
DESCASC
21-02-2021 10.3 (00:00) 4.5 (22:10) 7.4 9.17 (23:10) 5 (19:30) 16.8 0 0 6 10.8
20-02-2021 16 (15:50) 5 (08:30) 10.5 9.44 (17:00) 5.56 (17:00) 0 0 0 0 0
19-02-2021 15.8 (15:40) 3.4 (08:00) 9.6 8.33 (16:00) 4.72 (16:00) 0 0 0 0 0
18-02-2021 14.6 (15:40) 4.6 (00:00) 9.6 11.67 (17:10) 6.39 (17:00) 0 0 0 0 0
17-02-2021 14.8 (16:20) 4.9 (00:00) 9.9 6.11 (15:10) 3.89 (15:20) 0 0 0 0 0
16-02-2021 13.6 (16:30) 3.2 (00:00) 8.4 5 (15:30) 3.33 (15:30) 0 0 0 0 0
15-02-2021 13.5 (17:00) 4.8 (00:00) 9.2 4.72 (15:00) 2.78 (15:00) 0 0 0 0 0
14-02-2021 14.7 (15:50) 3.8 (08:10) 9.2 5 (15:10) 2.5 (16:20) 0 0 0 0 0
13-02-2021 15.3 (16:30) 4.6 (06:50) 10 9.44 (15:40) 5.28 (15:40) 0 0 0 0 0
12-02-2021 12.1 (14:20) 7.2 (00:00) 9.7 13.89 (13:30) 7.78 (13:30) 10.8 3.2 7.6 0 0
11-02-2021 10.6 (17:20) 4.7 (07:40) 7.7 5.83 (20:00) 3.61 (20:10) 0 0 0 0 0
10-02-2021 13.8 (16:20) 5.3 (05:10) 9.6 17.22 (05:10) 9.17 (02:20) 3.2 3.2 0 0 0
09-02-2021 6.9 (14:10) 4.4 (00:00) 5.7 15.28 (14:30) 8.33 (14:30) 21.8 2.2 7 11.8 0.8
07-02-2021 10 (15:00) 2.6 (00:00) 6.3 8.61 (11:30) 5.28 (21:20) 0.6 0 0 0 0.6
05-02-2021 14.5 (16:50) 7.3 (07:30) 10.9 10 (20:50) 5.28 (22:00) 4.4 0.4 0 0 4
04-02-2021 10 (16:10) 7 (00:00) 8.5 6.11 (14:10) 3.61 (14:20) 0.8 0.6 0.2 0 0
31-01-2021 -- (--) -- (--) -- -- (--) -- (--) -- -- -- -- --
30-01-2021 -- (--) -- (--) -- -- (--) -- (--) -- -- -- -- --
29-01-2021 -- (--) -- (--) -- -- (--) -- (--) -- -- -- -- --
26-01-2021 -- (--) -- (--) -- -- (--) -- (--) -- -- -- -- --
25-01-2021 -- (--) -- (--) -- -- (--) -- (--) -- -- -- -- --

Gráficas

Temp. máximas Temp. mínimas Temp. medias Precipitaciones Rachas de viento máximas Velocidades máximas media en intervalos de 10 minutos

Datos horarios

Fecha y hora oficial Temperatura (ºC) Velocidad del viento (km/h) Dirección del viento Racha (km/h) Dirección de racha Precipitación (mm) Presión (hPa) Tendencia (hPa) Humedad (%)
2021-02-23 23:00:00 5.3 6 Nordeste 8 Nordeste 0 -- -- 85
2021-02-23 22:00:00 6.6 4 Sudeste 8 Sudeste 0 -- -- 79
2021-02-23 21:00:00 8 4 Sudeste 13 Sudeste 0 -- -- 75
2021-02-23 20:00:00 8.9 4 Sudeste 8 Sur 0 -- -- 70
2021-02-23 19:00:00 9.8 4 Sur 10 Sur 0 -- -- 67
2021-02-23 18:00:00 10.9 6 Sur 18 Sur 0 -- -- 62
2021-02-23 17:00:00 12 10 Sur 21 Sur 0 -- -- 58
2021-02-23 16:00:00 12.7 11 Sur 20 Sudeste 0 -- -- 56
2021-02-23 15:00:00 11.7 4 Este 15 Sudoeste 0 -- -- 61
2021-02-23 14:00:00 11.1 3 Sudeste 15 Sudeste 0 -- -- 64
2021-02-23 13:00:00 10.4 7 Sudeste 17 Sudeste 0 -- -- 66
2021-02-23 12:00:00 9.2 9 Este 20 Sudeste 0 -- -- 70
2021-02-23 11:00:00 8.3 9 Este 22 Sudeste 0 -- -- 74
2021-02-23 10:00:00 6.1 10 Nordeste 17 Nordeste 0 -- -- 82
2021-02-23 09:00:00 2.6 6 Nordeste 11 Nordeste 0 -- -- 90
2021-02-23 08:00:00 1.7 6 Nordeste 9 Nordeste 0 -- -- 90
2021-02-23 07:00:00 1.8 5 Nordeste 9 Nordeste 0 -- -- 87
2021-02-23 06:00:00 2.7 6 Nordeste 10 Nordeste 0 -- -- 84
2021-02-23 05:00:00 2.7 6 Nordeste 12 Nordeste 0 -- -- 85
2021-02-23 04:00:00 2.1 6 Nordeste 9 Nordeste 0 -- -- 87
2021-02-23 03:00:00 2.1 0 Calma 4 Nordeste 0 -- -- 86
2021-02-23 02:00:00 2.4 3 Nordeste 6 Nordeste 0 -- -- 85
2021-02-23 01:00:00 2.6 3 Norte 6 Norte 0 -- -- 83
2021-02-23 00:00:00 3.2 3 Nordeste 5 Nordeste 0 -- -- 81
2021-02-22 23:00:00 3.8 2 Nordeste 10 Nordeste 0 -- -- 79
2021-02-22 22:00:00 4.7 5 Nordeste 16 Norte 0 -- -- 76
2021-02-22 21:00:00 5.9 5 Nordeste 10 Nordeste 0 -- -- 69
2021-02-22 20:00:00 6.7 4 Norte 9 Norte 0 -- -- 67
2021-02-22 19:00:00 8.6 5 Noroeste 16 Norte 0 -- -- 60
2021-02-22 18:00:00 10 6 Noroeste 18 Norte 0 -- -- 55
2021-02-22 17:00:00 9.9 10 Norte 24 Norte 0 -- -- 54
2021-02-22 16:00:00 8.9 15 Norte 32 Nordeste 0 -- -- 58
2021-02-22 15:00:00 8.7 17 Norte 30 Nordeste 0 -- -- 58
2021-02-22 14:00:00 9 17 Norte 31 Norte 0 -- -- 57
2021-02-22 13:00:00 8.1 16 Norte 31 Norte 0 -- -- 58
2021-02-22 12:00:00 7.1 14 Norte 32 Norte 0 -- -- 64
2021-02-22 11:00:00 6.1 11 Norte 21 Norte 0 -- -- 68
2021-02-22 10:00:00 5.1 6 Norte 19 Norte 0 -- -- 74
2021-02-22 09:00:00 4.3 11 Norte 21 Norte 0 -- -- 79
2021-02-22 08:00:00 4.6 9 Noroeste 27 Noroeste 0 -- -- 75
2021-02-22 07:00:00 4.7 11 Noroeste 31 Noroeste 0 -- -- 78
2021-02-22 06:00:00 4.8 18 Noroeste 40 Noroeste 0 -- -- 78
2021-02-22 05:00:00 5 14 Noroeste 40 Noroeste 0 -- -- 77
2021-02-22 04:00:00 5.4 8 Noroeste 26 Sudeste 0 -- -- 75
2021-02-22 03:00:00 4.7 6 Sudeste 16 Sudoeste 0 -- -- 85
2021-02-22 02:00:00 5.1 6 Nordeste 17 Nordeste 0 -- -- 78
2021-02-22 01:00:00 4.9 6 Sur 22 Noroeste 0 -- -- 85
2021-02-22 00:00:00 5.2 11 Noroeste 33 Noroeste 0 -- -- 80
2021-02-21 23:00:00 4.9 17 Noroeste 32 Noroeste 0 -- -- 83
2021-02-21 22:00:00 4.6 8 Noroeste 24 Norte 1.4 -- -- 90
2021-02-21 21:00:00 4.9 11 Norte 26 Noroeste 2.4 -- -- 91
2021-02-21 20:00:00 6.4 9 Oeste 28 Sudoeste 4.8 -- -- 96
2021-02-21 19:00:00 7.9 0 Calma 10 Nordeste 2.2 -- -- 96
2021-02-21 18:00:00 8.1 3 Norte 8 Este 2.8 -- -- 95
2021-02-21 17:00:00 8.1 5 Este 13 Este 0.8 -- -- 95
2021-02-21 16:00:00 8 8 Este 16 Este 0.8 -- -- 95
2021-02-21 15:00:00 7.9 5 Este 14 Sudeste 0.6 -- -- 94
2021-02-21 14:00:00 7.6 6 Sudeste 23 Sudeste 1 -- -- 92
2021-02-21 13:00:00 8.3 9 Sudeste 21 Sudeste 0 -- -- 83
2021-02-21 12:00:00 8.4 6 Este 15 Nordeste 0 -- -- 80
2021-02-21 11:00:00 7.9 6 Nordeste 12 Nordeste 0 -- -- 80
2021-02-21 10:00:00 7.6 0 Calma 9 Sudeste 0 -- -- 80
2021-02-21 09:00:00 7.1 4 Sudeste 9 Sudeste 0 -- -- 80
2021-02-21 08:00:00 7.2 3 Sudeste 14 Sudeste 0 -- -- 78
2021-02-21 07:00:00 7.3 8 Sudeste 17 Sudeste 0 -- -- 78
2021-02-21 06:00:00 7.5 9 Sudeste 17 Sur 0 -- -- 78
2021-02-21 05:00:00 7.7 6 Sudeste 15 Sudeste 0 -- -- 78
2021-02-21 04:00:00 7.8 3 Nordeste 19 Sudeste 0 -- -- 81
2021-02-21 03:00:00 8.2 11 Sudeste 28 Sudeste 0 -- -- 81
2021-02-21 02:00:00 8.6 10 Sudeste 20 Sudeste 0 -- -- 77
2021-02-21 01:00:00 9.3 9 Sudeste 18 Sur 0 -- -- 69
2021-02-21 00:00:00 10.3 12 Sudeste 26 Sudeste 0 -- -- 53
2021-02-20 23:00:00 11.1 12 Sudeste 23 Sudeste 0 -- -- 43
2021-02-20 22:00:00 10.4 6 Sur 11 Sur 0 -- -- 46
2021-02-20 21:00:00 10.6 6 Sur 19 Sur 0 -- -- 44
2021-02-20 20:00:00 11.7 9 Sur 29 Sudoeste 0 -- -- 41
2021-02-20 19:00:00 12.7 10 Sur 19 Sudoeste 0 -- -- 42
2021-02-20 18:00:00 14.6 12 Sudoeste 30 Sudoeste 0 -- -- 41
2021-02-20 17:00:00 15 20 Sudoeste 34 Sudoeste 0 -- -- 37
2021-02-20 16:00:00 15.8 17 Sur 28 Sur 0 -- -- 39
2021-02-20 15:00:00 15 13 Sur 27 Sur 0 -- -- 46
2021-02-20 14:00:00 14.2 13 Sudoeste 32 Sur 0 -- -- 48
2021-02-20 13:00:00 14.5 11 Sur 22 Sur 0 -- -- 51
2021-02-20 12:00:00 13 10 Sur 18 Sur 0 -- -- 56
2021-02-20 11:00:00 10.9 4 Sur 11 Sur 0 -- -- 64
2021-02-20 10:00:00 7.4 3 Nordeste 8 Nordeste 0 -- -- 74
2021-02-20 09:00:00 5.2 3 Nordeste 9 Nordeste 0 -- -- 80
2021-02-20 08:00:00 5.5 6 Nordeste 15 Este 0 -- -- 77
2021-02-20 07:00:00 6.1 8 Este 12 Sudeste 0 -- -- 73
2021-02-20 06:00:00 5.7 5 Este 8 Este 0 -- -- 76
2021-02-20 05:00:00 6.6 3 Sudeste 9 Sudoeste 0 -- -- 71
2021-02-20 04:00:00 6.4 4 Sudeste 9 Sudeste 0 -- -- 72
2021-02-20 03:00:00 7.3 4 Sudeste 10 Sudeste 0 -- -- 72
2021-02-20 02:00:00 6.7 4 Sudeste 6 Sudoeste 0 -- -- 75
2021-02-20 01:00:00 7.3 3 Sur 5 Sur 0 -- -- 72
2021-02-20 00:00:00 7.8 0 Calma 8 Sur 0 -- -- 71
2021-02-19 23:00:00 7.9 0 Calma 6 Sudeste 0 -- -- 71
2021-02-19 22:00:00 10.6 3 Sudeste 13 Sur 0 -- -- 60
2021-02-19 21:00:00 10.5 5 Sur 9 Sur 0 -- -- 61
2021-02-19 20:00:00 10.2 5 Sudoeste 9 Sudoeste 0 -- -- 61
2021-02-19 19:00:00 12.1 3 Sur 17 Sudoeste 0 -- -- 58
2021-02-19 18:00:00 13.7 8 Sudoeste 24 Sudoeste 0 -- -- 49
2021-02-19 17:00:00 14.8 15 Sudoeste 28 Sudoeste 0 -- -- 42
2021-02-19 16:00:00 15.6 17 Sudoeste 30 Sudoeste 0 -- -- 44
2021-02-19 15:00:00 15 14 Sudoeste 24 Sudoeste 0 -- -- 51
2021-02-19 14:00:00 14.2 13 Sudoeste 22 Sur 0 -- -- 50
2021-02-19 13:00:00 12.7 6 Sudeste 14 Sudeste 0 -- -- 62
2021-02-19 12:00:00 11.5 6 Este 15 Sudeste 0 -- -- 67
2021-02-19 11:00:00 9.8 6 Este 12 Sudeste 0 -- -- 73
2021-02-19 10:00:00 7.5 7 Nordeste 12 Nordeste 0 -- -- 77
2021-02-19 09:00:00 4.6 4 Nordeste 9 Nordeste 0 -- -- 87
2021-02-19 08:00:00 3.4 8 Nordeste 10 Nordeste 0 -- -- 87
2021-02-19 07:00:00 3.6 7 Nordeste 9 Nordeste 0 -- -- 85
2021-02-19 06:00:00 4.1 5 Este 8 Nordeste 0 -- -- 81
2021-02-19 05:00:00 4.6 5 Nordeste 9 Nordeste 0 -- -- 79
2021-02-19 04:00:00 4.4 4 Nordeste 6 Norte 0 -- -- 83
2021-02-19 03:00:00 4.8 3 Nordeste 4 Nordeste 0 -- -- 83
2021-02-19 02:00:00 5.4 0 Calma 3 Sur 0 -- -- 82
2021-02-19 01:00:00 5.8 2 Sur 3 Sudeste 0 -- -- 80
2021-02-19 00:00:00 6.5 0 Calma 6 Sudoeste 0 -- -- 77
2021-02-18 23:00:00 8.2 4 Sudoeste 15 Oeste 0 -- -- 69
2021-02-18 22:00:00 8.1 3 Sur 13 Oeste 0 -- -- 68
2021-02-18 21:00:00 9.5 4 Sudoeste 23 Oeste 0 -- -- 58
2021-02-18 20:00:00 10.6 13 Oeste 32 Oeste 0 -- -- 52
2021-02-18 19:00:00 11.2 18 Oeste 36 Oeste 0 -- -- 52
2021-02-18 18:00:00 12.6 19 Oeste 42 Sudoeste 0 -- -- 44
2021-02-18 17:00:00 13.8 23 Sudoeste 37 Oeste 0 -- -- 45
2021-02-18 16:00:00 14.6 19 Sudoeste 33 Oeste 0 -- -- 49
2021-02-18 15:00:00 14.3 15 Sudoeste 31 Sudoeste 0 -- -- 58
2021-02-18 14:00:00 13 15 Sudoeste 32 Sudoeste 0 -- -- 62
2021-02-18 13:00:00 11.7 12 Sudoeste 21 Sur 0 -- -- 71
2021-02-18 12:00:00 10.1 5 Sudoeste 10 Nordeste 0 -- -- 82
2021-02-18 11:00:00 8.8 4 Sur 8 Nordeste 0 -- -- 85
2021-02-18 10:00:00 6.7 4 Este 9 Sudeste 0 -- -- 88
2021-02-18 09:00:00 5.7 5 Este 8 Este 0 -- -- 89
2021-02-18 08:00:00 4.8 3 Nordeste 5 Nordeste 0 -- -- 90
2021-02-18 07:00:00 4.9 0 Calma 3 Este 0 -- -- 90
2021-02-18 06:00:00 5.2 0 Calma 7 Sudeste 0 -- -- 88
2021-02-18 05:00:00 5.4 5 Este 6 Este 0 -- -- 87
2021-02-18 04:00:00 5.7 3 Este 5 Este 0 -- -- 87
2021-02-18 03:00:00 6 3 Nordeste 6 Nordeste 0 -- -- 86
2021-02-18 02:00:00 6.1 2 Nordeste 6 Este 0 -- -- 86
2021-02-18 01:00:00 6.9 4 Este 7 Nordeste 0 -- -- 84
2021-02-18 00:00:00 7.5 3 Nordeste 6 Nordeste 0 -- -- 83
2021-02-17 23:00:00 8.1 4 Nordeste 8 Nordeste 0 -- -- 84
2021-02-17 22:00:00 8.6 4 Nordeste 6 Nordeste 0 -- -- 84
2021-02-17 21:00:00 8.8 2 Nordeste 4 Noroeste 0 -- -- 80
2021-02-17 20:00:00 9.8 2 Noroeste 5 Sur 0 -- -- 76
2021-02-17 19:00:00 11.9 3 Oeste 10 Sudoeste 0 -- -- 68
2021-02-17 18:00:00 13 8 Sudoeste 16 Sudoeste 0 -- -- 63
2021-02-17 17:00:00 14.4 9 Sudoeste 18 Sur 0 -- -- 64
2021-02-17 16:00:00 14.7 8 Sudoeste 22 Sur 0 -- -- 67
2021-02-17 15:00:00 14.6 6 Sur 20 Sur 0 -- -- 68
2021-02-17 14:00:00 13.6 9 Sur 14 Sudoeste 0 -- -- 69
2021-02-17 13:00:00 12.3 4 Sudeste 11 Sur 0 -- -- 74
2021-02-17 12:00:00 11.3 6 Sudeste 13 Sudeste 0 -- -- 76
2021-02-17 11:00:00 10.2 5 Sur 10 Sudoeste 0 -- -- 82
2021-02-17 10:00:00 8 4 Este 9 Este 0 -- -- 91
2021-02-17 09:00:00 5.7 4 Nordeste 9 Nordeste 0 -- -- 94
2021-02-17 08:00:00 5.3 5 Nordeste 10 Nordeste 0 -- -- 93
2021-02-17 07:00:00 5.7 6 Este 9 Este 0 -- -- 92
2021-02-17 06:00:00 6.2 4 Este 8 Sudeste 0 -- -- 89
2021-02-17 05:00:00 6.5 6 Este 10 Este 0 -- -- 88
2021-02-17 04:00:00 6.8 3 Norte 5 Norte 0 -- -- 87
2021-02-17 03:00:00 6.6 0 Calma 4 Sur 0 -- -- 86
2021-02-17 02:00:00 7 0 Calma 8 Sudeste 0 -- -- 83
2021-02-17 01:00:00 6.9 0 Calma 4 Este 0 -- -- 82
2021-02-17 00:00:00 7.5 3 Sudeste 6 Sur 0 -- -- 78
2021-02-16 23:00:00 8.8 3 Sudoeste 12 Sudoeste 0 -- -- 72
2021-02-16 22:00:00 8.7 5 Oeste 10 Oeste 0 -- -- 72
2021-02-16 21:00:00 9.6 7 Sudoeste 12 Sudoeste 0 -- -- 69
2021-02-16 20:00:00 10 3 Oeste 11 Sudoeste 0 -- -- 72
2021-02-16 19:00:00 11.4 6 Sudoeste 9 Sudoeste 0 -- -- 72
2021-02-16 18:00:00 12.9 5 Oeste 18 Sudoeste 0 -- -- 69
2021-02-16 17:00:00 12.9 11 Sudoeste 18 Sudoeste 0 -- -- 70
2021-02-16 16:00:00 13.1 11 Sudoeste 18 Sudoeste 0 -- -- 70
2021-02-16 15:00:00 12.7 10 Sudoeste 17 Sudoeste 0 -- -- 69
2021-02-16 14:00:00 11.8 5 Sur 10 Sur 0 -- -- 75
2021-02-16 13:00:00 10.1 5 Sur 10 Sur 0 -- -- 79
2021-02-16 12:00:00 9.4 4 Sur 8 Este 0 -- -- 80
2021-02-16 11:00:00 8.2 3 Este 7 Este 0 -- -- 86
2021-02-16 10:00:00 5.9 3 Nordeste 6 Nordeste 0 -- -- 94
2021-02-16 09:00:00 3.6 0 Calma 9 Nordeste 0 -- -- 96
2021-02-16 08:00:00 3.4 5 Nordeste 9 Nordeste 0 -- -- 95
2021-02-16 07:00:00 3.3 5 Este 9 Nordeste 0 -- -- 94
2021-02-16 06:00:00 4 5 Nordeste 9 Nordeste 0 -- -- 94
2021-02-16 05:00:00 4.3 5 Este 8 Nordeste 0 -- -- 94
2021-02-16 04:00:00 4.6 6 Nordeste 12 Nordeste 0 -- -- 93
2021-02-16 03:00:00 5.1 6 Nordeste 9 Nordeste 0 -- -- 91
2021-02-16 02:00:00 5.4 5 Nordeste 10 Nordeste 0 -- -- 90
2021-02-16 01:00:00 6.8 5 Este 11 Este 0 -- -- 86
2021-02-16 00:00:00 7 5 Este 10 Este 0 -- -- 87
2021-02-15 23:00:00 6.9 4 Este 8 Este 0 -- -- 87
2021-02-15 22:00:00 7.8 5 Nordeste 10 Este 0 -- -- 84
2021-02-15 21:00:00 8.7 6 Nordeste 10 Nordeste 0 -- -- 81
2021-02-15 20:00:00 9.6 8 Nordeste 12 Nordeste 0 -- -- 79
2021-02-15 19:00:00 11 4 Nordeste 7 Nordeste 0 -- -- 74
2021-02-15 18:00:00 13 3 Sudeste 7 Este 0 -- -- 67
2021-02-15 17:00:00 13.5 3 Sudoeste 12 Sudeste 0 -- -- 66
2021-02-15 16:00:00 12.7 3 Este 15 Sudeste 0 -- -- 68
2021-02-15 15:00:00 11.5 10 Este 17 Este 0 -- -- 69
2021-02-15 14:00:00 10.7 7 Este 15 Nordeste 0 -- -- 73
2021-02-15 13:00:00 9.3 7 Este 15 Este 0 -- -- 78
2021-02-15 12:00:00 8.3 7 Este 15 Este 0 -- -- 82
2021-02-15 11:00:00 7.7 8 Nordeste 15 Nordeste 0 -- -- 84
2021-02-15 10:00:00 7.1 5 Nordeste 17 Este 0 -- -- 88
2021-02-15 09:00:00 6.7 5 Este 10 Nordeste 0 -- -- 90
2021-02-15 08:00:00 6.3 3 Nordeste 6 Nordeste 0 -- -- 90
2021-02-15 07:00:00 6.2 4 Nordeste 9 Nordeste 0 -- -- 90
2021-02-15 06:00:00 6.1 3 Este 6 Nordeste 0 -- -- 91
2021-02-15 05:00:00 5.4 2 Nordeste 9 Nordeste 0 -- -- 90
2021-02-15 04:00:00 5 5 Nordeste 9 Nordeste 0 -- -- 90
2021-02-15 03:00:00 5 5 Nordeste 7 Nordeste 0 -- -- 89
2021-02-15 02:00:00 5.7 3 Nordeste 6 Nordeste 0 -- -- 86
2021-02-15 01:00:00 6.9 3 Este 8 Este 0 -- -- 82
2021-02-15 00:00:00 7.6 6 Este 13 Nordeste 0 -- -- 78
2021-02-14 23:00:00 8.4 8 Nordeste 16 Nordeste 0 -- -- 77
2021-02-14 22:00:00 8.4 7 Nordeste 14 Nordeste 0 -- -- 78
2021-02-14 21:00:00 8.3 4 Nordeste 7 Nordeste 0 -- -- 78
2021-02-14 20:00:00 9.3 4 Nordeste 5 Nordeste 0 -- -- 74
2021-02-14 19:00:00 11 3 Nordeste 4 Nordeste 0 -- -- 70
2021-02-14 18:00:00 12.6 0 Calma 10 Sur 0 -- -- 64
2021-02-14 17:00:00 13.2 5 Sur 14 Sudeste 0 -- -- 61
2021-02-14 16:00:00 14.7 5 Sur 18 Sur 0 -- -- 57
2021-02-14 15:00:00 14.1 5 Sudeste 14 Sudeste 0 -- -- 60
2021-02-14 14:00:00 13.4 7 Sur 13 Sur 0 -- -- 60
2021-02-14 13:00:00 12.3 5 Sudeste 12 Sudeste 0 -- -- 67
2021-02-14 12:00:00 11.2 6 Sudeste 12 Este 0 -- -- 69
2021-02-14 11:00:00 10.1 4 Este 12 Sudeste 0 -- -- 75
2021-02-14 10:00:00 8.1 2 Nordeste 6 Nordeste 0 -- -- 82
2021-02-14 09:00:00 4.4 5 Este 8 Nordeste 0 -- -- 91
2021-02-14 08:00:00 4 4 Nordeste 6 Nordeste 0 -- -- 90
2021-02-14 07:00:00 4.2 6 Nordeste 8 Nordeste 0 -- -- 90
2021-02-14 06:00:00 4.2 4 Nordeste 6 Nordeste 0 -- -- 89
2021-02-14 05:00:00 4.8 4 Nordeste 6 Nordeste 0 -- -- 87
2021-02-14 04:00:00 5.6 5 Nordeste 8 Nordeste 0 -- -- 85
2021-02-14 03:00:00 6.3 8 Nordeste 13 Nordeste 0 -- -- 84
2021-02-14 02:00:00 6 4 Nordeste 9 Nordeste 0 -- -- 86
2021-02-14 01:00:00 7.2 5 Este 10 Nordeste 0 -- -- 83
2021-02-14 00:00:00 7.9 3 Sudeste 8 Sudeste 0 -- -- 79
2021-02-13 23:00:00 8.6 0 Calma 20 Norte 0 -- -- 76
2021-02-13 22:00:00 9.7 5 Noroeste 17 Norte 0 -- -- 75
2021-02-13 21:00:00 10 4 Este 17 Norte 0 -- -- 72
2021-02-13 20:00:00 11.3 8 Norte 13 Norte 0 -- -- 68
2021-02-13 19:00:00 12.4 3 Norte 17 Norte 0 -- -- 62
2021-02-13 18:00:00 13.7 10 Norte 21 Noroeste 0 -- -- 57
2021-02-13 17:00:00 14.9 11 Noroeste 24 Noroeste 0 -- -- 52
2021-02-13 16:00:00 14.9 14 Noroeste 34 Noroeste 0 -- -- 51
2021-02-13 15:00:00 14.7 17 Noroeste 32 Noroeste 0 -- -- 48
2021-02-13 14:00:00 14 8 Nordeste 19 Noroeste 0 -- -- 42
2021-02-13 13:00:00 12.2 6 Noroeste 22 Noroeste 0 -- -- 38
2021-02-13 06:00:00 5.4 0 Calma 12 Sur 0 -- -- 80
2021-02-13 05:00:00 5.7 4 Sur 8 Sudoeste 0 -- -- 79
2021-02-13 04:00:00 7.3 3 Noroeste 14 Norte 0 -- -- 73
2021-02-13 03:00:00 7 5 Noroeste 15 Oeste 0 -- -- 75
2021-02-13 02:00:00 7 4 Noroeste 9 Oeste 0 -- -- 79
2021-02-13 01:00:00 7.5 5 Oeste 14 Oeste 0 -- -- 78
2021-02-13 00:00:00 8 8 Oeste 16 Sudoeste 0 -- -- 75
2021-02-12 23:00:00 8.2 4 Sur 20 Noroeste 0 -- -- 73
2021-02-12 22:00:00 8.7 14 Noroeste 23 Noroeste 0 -- -- 71
2021-02-12 21:00:00 9.3 10 Noroeste 19 Oeste 0 -- -- 69
2021-02-12 20:00:00 9.4 7 Sudoeste 21 Noroeste 0 -- -- 71
2021-02-12 19:00:00 10.2 11 Noroeste 21 Noroeste 0 -- -- 69
2021-02-12 18:00:00 10.6 12 Noroeste 31 Noroeste 0 -- -- 67
2021-02-12 17:00:00 10.9 14 Noroeste 27 Oeste 0 -- -- 63
2021-02-12 16:00:00 11.2 13 Noroeste 37 Noroeste 0 -- -- 64
2021-02-12 15:00:00 11.7 15 Noroeste 44 Noroeste 0 -- -- 62
2021-02-12 14:00:00 12 26 Noroeste 50 Noroeste 0 -- -- 62
2021-02-12 13:00:00 11 26 Noroeste 44 Noroeste 0 -- -- 66
2021-02-12 12:00:00 10.5 17 Noroeste 35 Noroeste 0 -- -- 67
2021-02-12 11:00:00 9.8 20 Noroeste 40 Noroeste 0 -- -- 72
2021-02-12 10:00:00 8.4 16 Noroeste 35 Noroeste 0 -- -- 80
2021-02-12 09:00:00 7.6 9 Oeste 29 Oeste 0 -- -- 87
2021-02-12 08:00:00 7.6 19 Noroeste 33 Oeste 0.2 -- -- 92
2021-02-12 07:00:00 8.7 9 Noroeste 18 Oeste 7.4 -- -- 100
2021-02-12 06:00:00 9.3 10 Sudoeste 19 Sudoeste 0.8 -- -- 100
2021-02-12 05:00:00 9.4 14 Sudoeste 30 Sudoeste 1 -- -- 100
2021-02-12 04:00:00 9.5 15 Sudoeste 26 Sudoeste 1.4 -- -- 100
2021-02-12 03:00:00 9.5 13 Sudoeste 21 Sudoeste 0 -- -- 100
2021-02-12 02:00:00 9.4 12 Sudoeste 21 Sudoeste 0 -- -- 100
2021-02-12 01:00:00 9.4 12 Oeste 19 Oeste 0 -- -- 100
2021-02-12 00:00:00 9.7 8 Sudoeste 19 Sudoeste 0 -- -- 100
2021-02-11 23:00:00 9.9 7 Sudoeste 16 Sudoeste 0 -- -- 100
2021-02-11 22:00:00 10 9 Sudoeste 19 Sudoeste 0 -- -- 100
2021-02-11 21:00:00 10.2 9 Sudoeste 20 Sudoeste 0 -- -- 100
2021-02-11 20:00:00 10.1 12 Sudoeste 21 Sudoeste 0 -- -- 99
2021-02-11 19:00:00 10.2 10 Sudoeste 18 Sudoeste 0 -- -- 99
2021-02-11 18:00:00 10.5 9 Sudoeste 15 Sudoeste 0 -- -- 99
2021-02-11 17:00:00 10.3 0 Calma 8 Sudoeste 0 -- -- 100
2021-02-11 16:00:00 9.8 3 Sudoeste 12 Sudoeste 0 -- -- 100
2021-02-11 15:00:00 9.7 8 Sudoeste 14 Sudoeste 0 -- -- 100
2021-02-11 14:00:00 9.6 9 Sudoeste 16 Sudoeste 0 -- -- 99
2021-02-11 13:00:00 9.3 9 Sudoeste 14 Oeste 0 -- -- 99
2021-02-11 12:00:00 9.1 9 Sudoeste 15 Sudoeste 0 -- -- 99
2021-02-11 11:00:00 7.9 6 Oeste 15 Sudoeste 0 -- -- 99
2021-02-11 10:00:00 6.6 3 Sur 8 Sudoeste 0 -- -- 98
2021-02-11 09:00:00 5.3 3 Sudeste 7 Sudeste 0 -- -- 96
2021-02-11 08:00:00 5.1 4 Sudeste 6 Sur 0 -- -- 95
2021-02-11 07:00:00 5.2 2 Este 8 Nordeste 0 -- -- 92
2021-02-11 06:00:00 5.8 5 Sudoeste 6 Sudoeste 0 -- -- 92
2021-02-11 05:00:00 6.2 3 Sur 8 Sur 0 -- -- 87
2021-02-11 04:00:00 6.3 0 Calma 7 Sudoeste 0 -- -- 87
2021-02-11 03:00:00 6.8 4 Sudoeste 11 Sudoeste 0 -- -- 85
2021-02-11 02:00:00 7 6 Sudoeste 10 Sudoeste 0 -- -- 81
2021-02-11 01:00:00 7.1 0 Calma 10 Sur 0 -- -- 82
2021-02-11 00:00:00 7.1 6 Sudoeste 10 Sudoeste 0 -- -- 66
2021-02-10 23:00:00 6.1 0 Calma 6 Sur 0 -- -- 73
2021-02-10 22:00:00 5.9 0 Calma 12 Sudoeste 0 -- -- 75
2021-02-10 21:00:00 6.7 4 Sudoeste 11 Sudoeste 0 -- -- 59
2021-02-10 20:00:00 7.4 2 Sur 8 Sudoeste 0 -- -- 71
2021-02-10 19:00:00 9.7 0 Calma 20 Noroeste 0 -- -- 48
2021-02-10 18:00:00 12.8 15 Noroeste 27 Noroeste 0 -- -- 32
2021-02-10 17:00:00 13.5 14 Noroeste 26 Noroeste 0 -- -- 34
2021-02-10 16:00:00 13.5 14 Noroeste 32 Noroeste 0 -- -- 35
2021-02-10 15:00:00 12.6 12 Noroeste 39 Oeste 0 -- -- 40
2021-02-10 14:00:00 11.5 25 Oeste 45 Oeste 0 -- -- 44
2021-02-10 13:00:00 10.4 26 Noroeste 45 Noroeste 0 -- -- 53
2021-02-10 12:00:00 9.4 16 Noroeste 35 Oeste 0 -- -- 59
2021-02-10 11:00:00 8.5 21 Noroeste 42 Oeste 0 -- -- 64
2021-02-10 10:00:00 6.9 19 Oeste 39 Oeste 0 -- -- 76
2021-02-10 09:00:00 6.5 18 Oeste 43 Noroeste 0 -- -- 80
2021-02-10 08:00:00 6.3 22 Noroeste 56 Oeste 0 -- -- 80
2021-02-10 07:00:00 6.1 28 Oeste 54 Oeste 0 -- -- 82
2021-02-10 06:00:00 6.3 28 Oeste 62 Oeste 0.6 -- -- 82
2021-02-10 05:00:00 5.7 14 Noroeste 47 Noroeste 2.2 -- -- 96
2021-02-10 04:00:00 5.9 26 Oeste 59 Oeste 0.4 -- -- 95
2021-02-10 03:00:00 6 28 Oeste 53 Sudoeste 0 -- -- 94
2021-02-10 02:00:00 5.9 23 Sudoeste 41 Sudoeste 0 -- -- 96
2021-02-10 01:00:00 5.7 21 Sudoeste 38 Sudoeste 0 -- -- 96
2021-02-10 00:00:00 5.9 21 Oeste 41 Sudoeste 0 -- -- 95
2021-02-09 23:00:00 5.8 22 Sudoeste 40 Oeste 0 -- -- 98
2021-02-09 22:00:00 6.2 13 Sudoeste 27 Sudoeste 0 -- -- 97
2021-02-09 21:00:00 6.5 18 Sudoeste 37 Sudoeste 0 -- -- 97
2021-02-09 20:00:00 6 19 Oeste 39 Sudoeste 0 -- -- 97
2021-02-09 19:00:00 6.4 19 Sudoeste 33 Sudoeste 0.8 -- -- 99
2021-02-09 18:00:00 6.2 10 Sudoeste 20 Sudoeste 0 -- -- 98
2021-02-09 17:00:00 5.7 6 Oeste 19 Sudoeste 0.2 -- -- 95
2021-02-09 16:00:00 4.8 11 Oeste 46 Noroeste 0.8 -- -- 95
2021-02-09 15:00:00 4.8 23 Noroeste 55 Oeste 6.2 -- -- 98
2021-02-09 14:00:00 6.8 24 Sudoeste 46 Sudoeste 2.6 -- -- 100
2021-02-09 13:00:00 6.7 22 Sudoeste 50 Sudoeste 2 -- -- 100
2021-02-09 12:00:00 6.7 29 Sudoeste 53 Sudoeste 0.8 -- -- 100
2021-02-09 11:00:00 6 22 Sudoeste 39 Sudoeste 1 -- -- 100
2021-02-09 10:00:00 5.6 15 Sudoeste 28 Sudoeste 1.2 -- -- 100
2021-02-09 09:00:00 5.5 18 Sudoeste 29 Sudoeste 1 -- -- 100
2021-02-09 08:00:00 5.2 13 Sudoeste 30 Sur 1.6 -- -- 100
2021-02-09 07:00:00 5 12 Sudoeste 26 Sudoeste 1.4 -- -- 99
2021-02-09 06:00:00 5 16 Sudoeste 27 Sudoeste 0.8 -- -- 99
2021-02-09 05:00:00 4.7 13 Sudoeste 21 Sudoeste 0 -- -- 98
2021-02-09 04:00:00 4.5 4 Sudoeste 17 Sudoeste 0.4 -- -- 97
2021-02-09 03:00:00 4.6 3 Oeste 17 Oeste 0.6 -- -- 97
2021-02-09 02:00:00 4.8 10 Sudoeste 22 Sudoeste 0.4 -- -- 96
2021-02-09 01:00:00 4.6 11 Sudoeste 18 Sudoeste 0 -- -- 94
2021-02-09 00:00:00 4.9 7 Oeste 28 Oeste 0 -- -- 90
2021-02-08 23:00:00 6.5 22 Oeste 36 Oeste 0 -- -- 81
2021-02-08 22:00:00 6.4 12 Oeste 31 Oeste 0 -- -- 86
2021-02-08 21:00:00 7.4 18 Oeste 42 Oeste 0 -- -- 76
2021-02-08 20:00:00 7.1 19 Oeste 53 Oeste 0 -- -- 78
2021-02-08 19:00:00 6.6 14 Oeste 30 Oeste 0.2 -- -- 91
2021-02-08 18:00:00 7 13 Oeste 38 Sudoeste 0.6 -- -- 89
2021-02-08 17:00:00 7.8 13 Sudoeste 36 Oeste 0 -- -- 87
2021-02-08 16:00:00 9 17 Oeste 32 Oeste 0 -- -- 76
2021-02-08 15:00:00 10 14 Sudoeste 29 Sudoeste 0 -- -- 74
2021-02-08 14:00:00 8.6 15 Sudoeste 37 Sudoeste 0 -- -- 79
2021-02-08 13:00:00 7.8 17 Sudoeste 31 Sudoeste 0 -- -- 87
2021-02-08 12:00:00 6.8 18 Sudoeste 31 Sudoeste 0 -- -- 93
2021-02-08 11:00:00 6.2 19 Sudoeste 30 Sudoeste 0 -- -- 97
2021-02-08 10:00:00 5.1 10 Sudoeste 24 Oeste 0 -- -- 96
2021-02-08 09:00:00 5.1 17 Oeste 34 Oeste 0 -- -- 90
2021-02-08 08:00:00 4 9 Oeste 16 Sudoeste 0.2 -- -- 100
2021-02-08 07:00:00 4.2 0 Calma 10 Oeste 0 -- -- 99
2021-02-08 06:00:00 4.6 4 Oeste 14 Sudoeste 2 -- -- 100
2021-02-08 05:00:00 4.6 7 Sudoeste 11 Sudoeste 1.2 -- -- 100
2021-02-08 04:00:00 4.6 5 Oeste 17 Sudoeste 1.8 -- -- 100
2021-02-08 03:00:00 4.6 10 Sudoeste 23 Sudoeste 0.6 -- -- 99
2021-02-08 02:00:00 4.7 12 Sudoeste 23 Sudoeste 0 -- -- 99
2021-02-08 01:00:00 4.5 14 Sudoeste 35 Sudoeste 0 -- -- 99
2021-02-08 00:00:00 4.4 18 Sudoeste 30 Oeste 0 -- -- 99
2021-02-07 23:00:00 3.9 15 Oeste 31 Oeste 0 -- -- 99
2021-02-07 22:00:00 3.7 17 Oeste 31 Sudoeste 0 -- -- 98
2021-02-07 21:00:00 4.6 15 Sudoeste 28 Sudoeste 0.2 -- -- 97
2021-02-07 20:00:00 5 14 Sudoeste 24 Sudoeste 0.2 -- -- 95
2021-02-07 19:00:00 5.6 11 Sudoeste 31 Oeste 0.2 -- -- 90
2021-02-07 18:00:00 7.4 16 Oeste 30 Oeste 0 -- -- 68
2021-02-07 17:00:00 8.1 12 Sudoeste 24 Sudoeste 0 -- -- 78
2021-02-07 16:00:00 8.5 15 Sudoeste 23 Sudoeste 0 -- -- 76
2021-02-07 15:00:00 10 12 Oeste 27 Oeste 0 -- -- 56
2021-02-07 14:00:00 9.6 13 Oeste 31 Oeste 0 -- -- 56
2021-02-07 13:00:00 9 15 Oeste 30 Oeste 0 -- -- 57
2021-02-07 12:00:00 8.1 15 Noroeste 31 Noroeste 0 -- -- 56
2021-02-07 11:00:00 7.2 13 Noroeste 22 Oeste 0 -- -- 61
2021-02-07 10:00:00 5.4 11 Noroeste 20 Noroeste 0 -- -- 70
2021-02-07 09:00:00 3.4 4 Noroeste 13 Norte 0 -- -- 74
2021-02-07 08:00:00 3.7 4 Norte 11 Norte 0 -- -- 79
2021-02-07 07:00:00 3.8 5 Norte 11 Noroeste 0 -- -- 82
2021-02-07 06:00:00 3.1 3 Nordeste 9 Nordeste 0 -- -- 85
2021-02-07 05:00:00 3.4 2 Noroeste 12 Nordeste 0 -- -- 85
2021-02-07 04:00:00 3.9 5 Norte 9 Norte 0 -- -- 88
2021-02-07 03:00:00 4.7 4 Norte 9 Nordeste 0 -- -- 85
2021-02-07 02:00:00 5.3 5 Nordeste 10 Nordeste 0 -- -- 85
2021-02-07 01:00:00 5.8 4 Norte 18 Nordeste 0 -- -- 83
2021-02-07 00:00:00 5.9 9 Nordeste 17 Nordeste 0 -- -- 86
2021-02-06 23:00:00 5.6 7 Nordeste 22 Norte 0 -- -- 87
2021-02-06 22:00:00 5.9 12 Nordeste 22 Norte 0 -- -- 85
2021-02-06 21:00:00 6.1 12 Nordeste 24 Norte 0 -- -- 86
2021-02-06 20:00:00 6.6 8 Norte 16 Norte 0 -- -- 88
2021-02-06 19:00:00 7.3 2 Oeste 4 Oeste 0.4 -- -- 92
2021-02-06 18:00:00 7.8 0 Calma 5 Noroeste 1.6 -- -- 91
2021-02-06 17:00:00 8 4 Nordeste 19 Sudoeste 0.2 -- -- 85
2021-02-06 16:00:00 8.2 12 Sudoeste 23 Sudoeste 0 -- -- 88
2021-02-06 15:00:00 9.2 8 Sudoeste 15 Oeste 0 -- -- 90
2021-02-06 14:00:00 8.4 5 Sudoeste 10 Sudoeste 0 -- -- 91
2021-02-06 13:00:00 8.4 4 Oeste 14 Oeste 0 -- -- 91
2021-02-06 12:00:00 7.5 7 Sudoeste 13 Sur 0 -- -- 98
2021-02-06 11:00:00 7.1 6 Sur 9 Sur 0 -- -- 98
2021-02-06 10:00:00 6.7 5 Sur 10 Sur 0 -- -- 98
2021-02-06 09:00:00 6.6 4 Sudoeste 10 Sudoeste 0.2 -- -- 98
2021-02-06 08:00:00 6.7 7 Sur 13 Sur 0.2 -- -- 98
2021-02-06 07:00:00 6.8 5 Sudoeste 18 Sur 0.2 -- -- 97
2021-02-06 06:00:00 6.8 6 Sudoeste 16 Sur 0.2 -- -- 98
2021-02-06 05:00:00 7.1 9 Sudoeste 26 Sudoeste 1 -- -- 97
2021-02-06 04:00:00 7.4 12 Sur 21 Sur 0.8 -- -- 97
2021-02-06 03:00:00 7.9 4 Sudeste 8 Sudeste 0 -- -- 97
2021-02-06 02:00:00 7.9 5 Sudeste 9 Sudeste 0.2 -- -- 95
2021-02-06 01:00:00 7.9 5 Sudeste 13 Sur 0 -- -- 94
2021-02-06 00:00:00 7.9 4 Sudeste 12 Sudoeste 0 -- -- 94
2021-02-05 23:00:00 7.8 0 Calma 19 Sur 0.6 -- -- 93
2021-02-05 22:00:00 8.4 19 Sudoeste 34 Sudoeste 2.2 -- -- 91
2021-02-05 21:00:00 10.1 14 Sudeste 36 Sur 1.2 -- -- 87
2021-02-05 20:00:00 11.4 4 Sudeste 9 Sudeste 0 -- -- 75
2021-02-05 19:00:00 12.2 4 Nordeste 9 Nordeste 0 -- -- 73
2021-02-05 18:00:00 13.4 4 Este 15 Este 0 -- -- 69
2021-02-05 17:00:00 14.3 5 Este 17 Este 0 -- -- 65
2021-02-05 16:00:00 14.2 9 Este 19 Nordeste 0 -- -- 63
2021-02-05 15:00:00 13.8 9 Sudeste 19 Sudeste 0 -- -- 63
2021-02-05 14:00:00 13.3 10 Sudeste 26 Sudeste 0 -- -- 64
2021-02-05 13:00:00 13.1 12 Este 25 Sudeste 0 -- -- 64
2021-02-05 12:00:00 12.4 9 Este 19 Este 0 -- -- 68
2021-02-05 11:00:00 11.8 9 Este 18 Este 0 -- -- 69
2021-02-05 10:00:00 8.9 3 Nordeste 16 Nordeste 0 -- -- 84
2021-02-05 09:00:00 7.9 9 Nordeste 17 Nordeste 0 -- -- 86
2021-02-05 08:00:00 7.5 9 Nordeste 16 Nordeste 0 -- -- 88
2021-02-05 07:00:00 8 9 Nordeste 26 Norte 0 -- -- 87
2021-02-05 06:00:00 7.8 14 Nordeste 25 Norte 0 -- -- 90
2021-02-05 05:00:00 8.4 10 Nordeste 16 Nordeste 0 -- -- 88
2021-02-05 04:00:00 8.5 8 Nordeste 20 Nordeste 0 -- -- 90
2021-02-05 03:00:00 8.2 9 Nordeste 16 Nordeste 0 -- -- 92
2021-02-05 02:00:00 8.2 9 Nordeste 17 Norte 0 -- -- 93
2021-02-05 01:00:00 8.2 10 Nordeste 19 Nordeste 0.4 -- -- 92
2021-02-05 00:00:00 8.4 9 Nordeste 16 Nordeste 0 -- -- 92
2021-02-04 23:00:00 7.9 6 Nordeste 12 Nordeste 0 -- -- 94
2021-02-04 22:00:00 7.6 5 Este 9 Nordeste 0 -- -- 95
2021-02-04 21:00:00 7.8 5 Nordeste 6 Nordeste 0 -- -- 94
2021-02-04 20:00:00 8.7 3 Nordeste 5 Nordeste 0 -- -- 92
2021-02-04 19:00:00 9.5 0 Calma 7 Sudoeste 0 -- -- 91
2021-02-04 18:00:00 9.9 4 Sudoeste 10 Sudoeste 0 -- -- 87
2021-02-04 17:00:00 9.8 5 Sudoeste 15 Sur 0 -- -- 90
2021-02-04 16:00:00 9.9 8 Sudeste 16 Sudeste 0 -- -- 92
2021-02-04 15:00:00 9.6 9 Sur 22 Sur 0 -- -- 95
2021-02-04 14:00:00 9.4 8 Sudeste 17 Sudeste 0 -- -- 98
2021-02-04 13:00:00 9.2 6 Sudeste 18 Sudeste 0 -- -- 100
2021-02-04 12:00:00 8.7 6 Este 17 Sudeste 0.2 -- -- 100
2021-02-04 11:00:00 8.1 6 Este 14 Este 0 -- -- 100
2021-02-04 10:00:00 7.7 6 Este 12 Este 0 -- -- 100
2021-02-04 09:00:00 7.3 3 Este 7 Este 0 -- -- 100
2021-02-04 08:00:00 7.1 2 Este 6 Sudeste 0 -- -- 100
2021-02-04 07:00:00 7.2 3 Sur 7 Sur 0 -- -- 100
2021-02-04 06:00:00 7.6 3 Sur 5 Sur 0 -- -- 100
2021-02-04 05:00:00 7.7 3 Sudoeste 8 Sudoeste 0.2 -- -- 100
2021-02-04 04:00:00 7.8 5 Sudoeste 10 Sudoeste 0 -- -- 100
2021-02-04 03:00:00 8.1 7 Oeste 19 Sudoeste 0 -- -- 100
2021-02-04 02:00:00 8.7 12 Sudoeste 19 Sudoeste 0.4 -- -- 100
2021-02-04 01:00:00 9.1 9 Sudoeste 17 Sudoeste 0 -- -- 100
2021-02-04 00:00:00 9.2 7 Sudoeste 13 Sur 0 -- -- 100
2021-02-03 23:00:00 9.3 5 Sudoeste 12 Sur 0.4 -- -- 100
2021-02-03 22:00:00 9.3 5 Sudoeste 13 Sudoeste 0.8 -- -- 100
2021-02-03 21:00:00 9.1 3 Sudeste 8 Sudeste 0.4 -- -- 100
2021-02-03 20:00:00 8.9 4 Sudeste 13 Sur 0.8 -- -- 99
2021-02-03 19:00:00 8.9 8 Sur 15 Oeste 0 -- -- 99
2021-02-03 18:00:00 8.9 3 Sudoeste 10 Sudoeste 0.2 -- -- 98
2021-02-03 17:00:00 8.8 5 Sudoeste 12 Sudoeste 0 -- -- 98
2021-02-03 16:00:00 9 5 Sudoeste 12 Sudoeste 0 -- -- 97
2021-02-03 15:00:00 9.1 6 Sudoeste 15 Sudoeste 0 -- -- 98
2021-02-03 14:00:00 8.7 9 Sudoeste 14 Sudoeste 0 -- -- 99
2021-02-03 13:00:00 8.2 10 Sudoeste 22 Sudoeste 0 -- -- 99
2021-02-03 12:00:00 7.9 12 Sudoeste 21 Sur 0 -- -- 100
2021-02-03 11:00:00 7.6 8 Sudoeste 17 Sudoeste 0 -- -- 99
2021-02-03 10:00:00 7.1 6 Sur 11 Sur 0.2 -- -- 99
2021-02-03 09:00:00 6.8 7 Sudoeste 17 Sur 0 -- -- 98
2021-02-03 08:00:00 6.9 6 Sudoeste 18 Sudoeste 0 -- -- 96
2021-02-03 07:00:00 7.1 9 Sudoeste 17 Sudoeste 0 -- -- 94
2021-02-03 06:00:00 7.2 2 Sudoeste 19 Sudoeste 0 -- -- 93
2021-02-03 05:00:00 7.3 12 Sudoeste 22 Sudoeste 0 -- -- 91
2021-02-03 04:00:00 7.3 9 Sudoeste 21 Sudoeste 0 -- -- 92
2021-02-03 03:00:00 7 5 Sudoeste 13 Sur 0 -- -- 92
2021-02-03 02:00:00 7.3 9 Sudoeste 23 Sudoeste 0 -- -- 91
2021-02-03 01:00:00 7.4 15 Sudoeste 31 Sudoeste 0 -- -- 90
2021-02-03 00:00:00 6.8 7 Sudoeste 20 Sudoeste 0 -- -- 97
2021-02-02 23:00:00 7 9 Sudoeste 19 Sudoeste 0 -- -- 98
2021-02-02 22:00:00 8.1 13 Sudoeste 22 Sudoeste 0 -- -- 97
2021-02-02 21:00:00 8.8 10 Sudoeste 21 Sudoeste 0 -- -- 97
2021-02-02 20:00:00 9.4 10 Sudoeste 25 Sudoeste 0 -- -- 94
2021-02-02 19:00:00 9.7 13 Sudoeste 27 Sudoeste 0 -- -- 92
2021-02-02 18:00:00 10.1 14 Sudoeste 27 Sudoeste 0 -- -- 92
2021-02-02 17:00:00 10.2 8 Sudoeste 19 Sudoeste 0 -- -- 95
2021-02-02 16:00:00 10.1 8 Sudoeste 19 Sudoeste 0 -- -- 98
2021-02-02 15:00:00 9.5 7 Oeste 17 Sudoeste 0 -- -- 100
2021-02-02 14:00:00 9.3 3 Sudoeste 8 Sudoeste 0 -- -- 100
2021-02-02 13:00:00 8.9 4 Sudoeste -- -- -- -- -- 100
2021-02-02 12:00:00 -- -- -- -- -- -- -- -- --
2021-02-02 11:00:00 -- -- -- -- -- -- -- -- --
2021-02-02 10:00:00 -- -- -- -- -- -- -- -- --
2021-02-02 09:00:00 -- -- -- -- -- -- -- -- --
2021-02-02 08:00:00 -- -- -- -- -- -- -- -- --
2021-02-02 07:00:00 -- -- -- -- -- -- -- -- --
2021-02-02 06:00:00 -- -- -- -- -- -- -- -- --
2021-02-02 05:00:00 -- -- -- -- -- -- -- -- --
2021-02-02 04:00:00 -- -- -- -- -- -- -- -- --
2021-02-02 03:00:00 -- -- -- -- -- -- -- -- --
2021-02-02 02:00:00 -- -- -- -- -- -- -- -- --
2021-02-02 01:00:00 -- -- -- -- -- -- -- -- --
2021-02-02 00:00:00 -- -- -- -- -- -- -- -- --
2021-02-01 23:00:00 -- -- -- -- -- -- -- -- --
2021-02-01 22:00:00 -- -- -- -- -- -- -- -- --
2021-02-01 21:00:00 -- -- -- -- -- -- -- -- --
2021-02-01 20:00:00 -- -- -- -- -- -- -- -- --
2021-02-01 19:00:00 -- -- -- -- -- -- -- -- --
2021-02-01 18:00:00 -- -- -- -- -- -- -- -- --
2021-02-01 17:00:00 -- -- -- -- -- -- -- -- --
2021-02-01 16:00:00 -- -- -- -- -- -- -- -- --
2021-02-01 15:00:00 -- -- -- -- -- -- -- -- --
2021-02-01 14:00:00 -- -- -- -- -- -- -- -- --
2021-02-01 13:00:00 -- -- -- -- -- -- -- -- --
2021-02-01 12:00:00 -- -- -- -- -- -- -- -- --
2021-02-01 11:00:00 -- -- -- -- -- -- -- -- --
2021-02-01 10:00:00 -- -- -- -- -- -- -- -- --
2021-02-01 09:00:00 -- -- -- -- -- -- -- -- --
2021-02-01 08:00:00 -- -- -- -- -- -- -- -- --
2021-02-01 07:00:00 -- -- -- -- -- -- -- -- --
2021-02-01 06:00:00 -- -- -- -- -- -- -- -- --
2021-02-01 05:00:00 -- -- -- -- -- -- -- -- --
2021-02-01 04:00:00 -- -- -- -- -- -- -- -- --
2021-02-01 03:00:00 -- -- -- -- -- -- -- -- --
2021-02-01 02:00:00 -- -- -- -- -- -- -- -- --
2021-02-01 01:00:00 -- -- -- -- -- -- -- -- --
2021-02-01 00:00:00 -- -- -- -- -- -- -- -- --
2021-01-31 23:00:00 -- -- -- -- -- -- -- -- --
2021-01-31 22:00:00 -- -- -- -- -- -- -- -- --
2021-01-31 21:00:00 -- -- -- -- -- -- -- -- --
2021-01-31 20:00:00 -- -- -- -- -- -- -- -- --
2021-01-31 19:00:00 -- -- -- -- -- -- -- -- --
2021-01-31 18:00:00 -- -- -- -- -- -- -- -- --
2021-01-31 17:00:00 -- -- -- -- -- -- -- -- --
2021-01-31 16:00:00 -- -- -- -- -- -- -- -- --
2021-01-31 15:00:00 -- -- -- -- -- -- -- -- --
2021-01-31 14:00:00 -- -- -- -- -- -- -- -- --
2021-01-31 13:00:00 -- -- -- -- -- -- -- -- --
2021-01-31 12:00:00 -- -- -- -- -- -- -- -- --
2021-01-31 11:00:00 -- -- -- -- -- -- -- -- --
2021-01-31 10:00:00 -- -- -- -- -- -- -- -- --
2021-01-31 09:00:00 -- -- -- -- -- -- -- -- --
2021-01-31 08:00:00 -- -- -- -- -- -- -- -- --
2021-01-31 07:00:00 -- -- -- -- -- -- -- -- --
2021-01-31 06:00:00 -- -- -- -- -- -- -- -- --
2021-01-31 05:00:00 -- -- -- -- -- -- -- -- --
2021-01-31 04:00:00 -- -- -- -- -- -- -- -- --
2021-01-31 03:00:00 -- -- -- -- -- -- -- -- --
2021-01-31 02:00:00 -- -- -- -- -- -- -- -- --
2021-01-31 01:00:00 -- -- -- -- -- -- -- -- --
2021-01-31 00:00:00 -- -- -- -- -- -- -- -- --
2021-01-30 23:00:00 -- -- -- -- -- -- -- -- --
2021-01-30 22:00:00 -- -- -- -- -- -- -- -- --
2021-01-30 21:00:00 -- -- -- -- -- -- -- -- --
2021-01-30 20:00:00 -- -- -- -- -- -- -- -- --
2021-01-30 19:00:00 -- -- -- -- -- -- -- -- --
2021-01-30 18:00:00 -- -- -- -- -- -- -- -- --
2021-01-30 17:00:00 -- -- -- -- -- -- -- -- --
2021-01-30 16:00:00 -- -- -- -- -- -- -- -- --
2021-01-30 15:00:00 -- -- -- -- -- -- -- -- --
2021-01-30 14:00:00 -- -- -- -- -- -- -- -- --
2021-01-30 13:00:00 -- -- -- -- -- -- -- -- --
2021-01-30 12:00:00 -- -- -- -- -- -- -- -- --
2021-01-30 11:00:00 -- -- -- -- -- -- -- -- --
2021-01-30 10:00:00 -- -- -- -- -- -- -- -- --
2021-01-30 09:00:00 -- -- -- -- -- -- -- -- --
2021-01-30 08:00:00 -- -- -- -- -- -- -- -- --
2021-01-30 07:00:00 -- -- -- -- -- -- -- -- --
2021-01-30 06:00:00 -- -- -- -- -- -- -- -- --
2021-01-30 05:00:00 -- -- -- -- -- -- -- -- --
2021-01-30 04:00:00 -- -- -- -- -- -- -- -- --
2021-01-30 03:00:00 -- -- -- -- -- -- -- -- --
2021-01-30 02:00:00 -- -- -- -- -- -- -- -- --
2021-01-30 01:00:00 -- -- -- -- -- -- -- -- --
2021-01-30 00:00:00 -- -- -- -- -- -- -- -- --
2021-01-29 23:00:00 -- -- -- -- -- -- -- -- --
2021-01-29 22:00:00 -- -- -- -- -- -- -- -- --
2021-01-29 21:00:00 -- -- -- -- -- -- -- -- --
2021-01-29 20:00:00 -- -- -- -- -- -- -- -- --
2021-01-29 19:00:00 -- -- -- -- -- -- -- -- --
2021-01-29 18:00:00 -- -- -- -- -- -- -- -- --
2021-01-29 17:00:00 -- -- -- -- -- -- -- -- --
2021-01-29 16:00:00 -- -- -- -- -- -- -- -- --
2021-01-29 15:00:00 -- -- -- -- -- -- -- -- --
2021-01-29 14:00:00 -- -- -- -- -- -- -- -- --
2021-01-29 13:00:00 -- -- -- -- -- -- -- -- --
2021-01-29 12:00:00 -- -- -- -- -- -- -- -- --
2021-01-29 11:00:00 -- -- -- -- -- -- -- -- --
2021-01-29 10:00:00 -- -- -- -- -- -- -- -- --
2021-01-29 09:00:00 -- -- -- -- -- -- -- -- --
2021-01-29 08:00:00 -- -- -- -- -- -- -- -- --
2021-01-29 07:00:00 -- -- -- -- -- -- -- -- --
2021-01-29 06:00:00 -- -- -- -- -- -- -- -- --
2021-01-29 05:00:00 -- -- -- -- -- -- -- -- --
2021-01-29 04:00:00 -- -- -- -- -- -- -- -- --
2021-01-29 03:00:00 -- -- -- -- -- -- -- -- --
2021-01-29 02:00:00 -- -- -- -- -- -- -- -- --
2021-01-29 01:00:00 -- -- -- -- -- -- -- -- --
2021-01-29 00:00:00 -- -- -- -- -- -- -- -- --
2021-01-28 23:00:00 -- -- -- -- -- -- -- -- --
2021-01-28 22:00:00 -- -- -- -- -- -- -- -- --
2021-01-28 21:00:00 -- -- -- -- -- -- -- -- --
2021-01-28 20:00:00 -- -- -- -- -- -- -- -- --
2021-01-28 19:00:00 -- -- -- -- -- -- -- -- --
2021-01-28 18:00:00 -- -- -- -- -- -- -- -- --
2021-01-28 17:00:00 -- -- -- -- -- -- -- -- --
2021-01-28 16:00:00 -- -- -- -- -- -- -- -- --
2021-01-28 15:00:00 -- -- -- -- -- -- -- -- --
2021-01-28 14:00:00 -- -- -- -- -- -- -- -- --
2021-01-28 13:00:00 -- -- -- -- -- -- -- -- --
2021-01-28 12:00:00 -- -- -- -- -- -- -- -- --
2021-01-28 11:00:00 -- -- -- -- -- -- -- -- --
2021-01-28 10:00:00 -- -- -- -- -- -- -- -- --
2021-01-28 09:00:00 -- -- -- -- -- -- -- -- --
2021-01-28 08:00:00 -- -- -- -- -- -- -- -- --
2021-01-28 07:00:00 -- -- -- -- -- -- -- -- --
2021-01-28 06:00:00 -- -- -- -- -- -- -- -- --
2021-01-28 05:00:00 -- -- -- -- -- -- -- -- --
2021-01-28 04:00:00 -- -- -- -- -- -- -- -- --
2021-01-28 03:00:00 -- -- -- -- -- -- -- -- --
2021-01-28 02:00:00 -- -- -- -- -- -- -- -- --
2021-01-28 01:00:00 -- -- -- -- -- -- -- -- --
2021-01-28 00:00:00 -- -- -- -- -- -- -- -- --
2021-01-27 23:00:00 -- -- -- -- -- -- -- -- --
2021-01-27 22:00:00 -- -- -- -- -- -- -- -- --
2021-01-27 21:00:00 -- -- -- -- -- -- -- -- --
2021-01-27 20:00:00 -- -- -- -- -- -- -- -- --
2021-01-27 19:00:00 -- -- -- -- -- -- -- -- --
2021-01-27 18:00:00 -- -- -- -- -- -- -- -- --
2021-01-27 17:00:00 -- -- -- -- -- -- -- -- --
2021-01-27 16:00:00 -- -- -- -- -- -- -- -- --
2021-01-27 15:00:00 -- -- -- -- -- -- -- -- --
2021-01-27 14:00:00 -- -- -- -- -- -- -- -- --
2021-01-27 13:00:00 -- -- -- -- -- -- -- -- --
2021-01-27 12:00:00 -- -- -- -- -- -- -- -- --
2021-01-27 11:00:00 -- -- -- -- -- -- -- -- --
2021-01-27 10:00:00 -- -- -- -- -- -- -- -- --
2021-01-27 09:00:00 -- -- -- -- -- -- -- -- --
2021-01-27 08:00:00 -- -- -- -- -- -- -- -- --
2021-01-27 07:00:00 -- -- -- -- -- -- -- -- --
2021-01-27 06:00:00 -- -- -- -- -- -- -- -- --
2021-01-27 05:00:00 -- -- -- -- -- -- -- -- --
2021-01-27 04:00:00 -- -- -- -- -- -- -- -- --
2021-01-27 03:00:00 -- -- -- -- -- -- -- -- --
2021-01-27 02:00:00 -- -- -- -- -- -- -- -- --
2021-01-27 01:00:00 -- -- -- -- -- -- -- -- --
2021-01-27 00:00:00 -- -- -- -- -- -- -- -- --
2021-01-26 23:00:00 -- -- -- -- -- -- -- -- --
2021-01-26 22:00:00 -- -- -- -- -- -- -- -- --
2021-01-26 21:00:00 -- -- -- -- -- -- -- -- --
2021-01-26 20:00:00 -- -- -- -- -- -- -- -- --
2021-01-26 19:00:00 -- -- -- -- -- -- -- -- --
2021-01-26 18:00:00 -- -- -- -- -- -- -- -- --
2021-01-26 17:00:00 -- -- -- -- -- -- -- -- --
2021-01-26 16:00:00 -- -- -- -- -- -- -- -- --
2021-01-26 15:00:00 -- -- -- -- -- -- -- -- --
2021-01-26 14:00:00 -- -- -- -- -- -- -- -- --
2021-01-26 13:00:00 -- -- -- -- -- -- -- -- --
2021-01-26 12:00:00 -- -- -- -- -- -- -- -- --
2021-01-26 11:00:00 -- -- -- -- -- -- -- -- --
2021-01-26 10:00:00 -- -- -- -- -- -- -- -- --
2021-01-26 09:00:00 -- -- -- -- -- -- -- -- --
2021-01-26 08:00:00 -- -- -- -- -- -- -- -- --
2021-01-26 07:00:00 -- -- -- -- -- -- -- -- --
2021-01-26 06:00:00 -- -- -- -- -- -- -- -- --
2021-01-26 05:00:00 -- -- -- -- -- -- -- -- --
2021-01-26 04:00:00 -- -- -- -- -- -- -- -- --
2021-01-26 03:00:00 -- -- -- -- -- -- -- -- --
2021-01-26 02:00:00 -- -- -- -- -- -- -- -- --
2021-01-26 01:00:00 -- -- -- -- -- -- -- -- --
2021-01-26 00:00:00 -- -- -- -- -- -- -- -- --
2021-01-25 23:00:00 -- -- -- -- -- -- -- -- --
2021-01-25 22:00:00 -- -- -- -- -- -- -- -- --
2021-01-25 21:00:00 -- -- -- -- -- -- -- -- --
2021-01-25 20:00:00 -- -- -- -- -- -- -- -- --
2021-01-25 19:00:00 -- -- -- -- -- -- -- -- --
2021-01-25 18:00:00 -- -- -- -- -- -- -- -- --
2021-01-25 17:00:00 -- -- -- -- -- -- -- -- --
2021-01-25 16:00:00 -- -- -- -- -- -- -- -- --
2021-01-25 15:00:00 -- -- -- -- -- -- -- -- --
2021-01-25 14:00:00 -- -- -- -- -- -- -- -- --
2021-01-25 13:00:00 -- -- -- -- -- -- -- -- --
2021-01-25 12:00:00 -- -- -- -- -- -- -- -- --
2021-01-25 11:00:00 -- -- -- -- -- -- -- -- --
2021-01-25 10:00:00 -- -- -- -- -- -- -- -- --
2021-01-25 09:00:00 -- -- -- -- -- -- -- -- --
2021-01-25 08:00:00 -- -- -- -- -- -- -- -- --
2021-01-25 07:00:00 -- -- -- -- -- -- -- -- --
2021-01-25 06:00:00 -- -- -- -- -- -- -- -- --
2021-01-25 05:00:00 -- -- -- -- -- -- -- -- --
2021-01-25 04:00:00 -- -- -- -- -- -- -- -- --
2021-01-25 03:00:00 -- -- -- -- -- -- -- -- --
2021-01-25 02:00:00 -- -- -- -- -- -- -- -- --
2021-01-25 01:00:00 -- -- -- -- -- -- -- -- --
2021-01-25 00:00:00 -- -- -- -- -- -- -- -- --